createdAt,value
2019-02-08T00:01:43.458Z,100798.21
2019-02-08T00:04:13.839Z,100791.44
2019-02-08T00:06:44.130Z,100794.41
2019-02-08T00:09:14.457Z,100802.29
2019-02-08T00:11:44.750Z,100799.58
2019-02-08T00:14:15.053Z,100791.12
2019-02-08T00:16:45.340Z,100792.86
2019-02-08T00:19:15.618Z,100784.27
2019-02-08T00:21:45.900Z,100795.47
2019-02-08T00:24:16.244Z,100801.22
2019-02-08T00:26:46.518Z,100801.81
2019-02-08T00:29:16.808Z,100798.53
2019-02-08T00:31:47.086Z,100802.56
2019-02-08T00:34:17.399Z,100803.67
2019-02-08T00:36:47.690Z,100809.08
2019-02-08T00:39:17.967Z,100812.91
2019-02-08T00:41:48.619Z,100813.39
2019-02-08T00:44:19.348Z,100823.37
2019-02-08T00:46:49.854Z,100824.28
2019-02-08T00:49:20.128Z,100828.73
2019-02-08T00:51:50.424Z,100833.87
2019-02-08T00:54:20.778Z,100832.06
2019-02-08T00:56:51.404Z,100825.06
2019-02-08T00:59:21.688Z,100829.98
2019-02-08T01:01:51.972Z,100830.53
2019-02-08T01:04:22.253Z,100827.63
2019-02-08T01:06:52.574Z,100834.73
2019-02-08T01:09:22.868Z,100834.75
2019-02-08T01:11:53.433Z,100825.37
2019-02-08T01:14:23.728Z,100828.89
2019-02-08T01:16:54.032Z,100834.14
2019-02-08T01:19:24.320Z,100841.19
2019-02-08T01:21:54.615Z,100840.70
2019-02-08T01:24:24.917Z,100839.53
2019-02-08T01:26:56.265Z,100837.92
2019-02-08T01:29:26.561Z,100841.26
2019-02-08T01:31:56.859Z,100849.12
2019-02-08T01:34:27.156Z,100851.77
2019-02-08T01:36:57.590Z,100847.03
2019-02-08T01:39:27.856Z,100844.17
2019-02-08T01:41:58.129Z,100840.50
2019-02-08T01:44:28.438Z,100846.17
2019-02-08T01:46:58.716Z,100846.57
2019-02-08T01:49:28.982Z,100845.30
2019-02-08T01:51:59.274Z,100849.00
2019-02-08T01:54:29.596Z,100854.41
2019-02-08T01:56:59.877Z,100850.93
2019-02-08T01:59:30.156Z,100855.70
2019-02-08T02:02:00.456Z,100859.26
2019-02-08T02:04:30.751Z,100851.53
2019-02-08T02:07:01.092Z,100853.42
2019-02-08T02:09:31.419Z,100846.17
2019-02-08T02:12:01.697Z,100842.58
2019-02-08T02:14:32.154Z,100845.05
2019-02-08T02:17:02.594Z,100850.39
2019-02-08T02:19:32.878Z,100846.42
2019-02-08T02:22:03.163Z,100837.00
2019-02-08T02:24:33.460Z,100847.39
2019-02-08T02:27:03.787Z,100848.89
2019-02-08T02:29:34.135Z,100851.09
2019-02-08T02:32:05.400Z,100844.23
2019-02-08T02:34:35.678Z,100846.75
2019-02-08T02:37:05.980Z,100850.77
2019-02-08T02:39:36.301Z,100846.91
2019-02-08T02:42:06.581Z,100855.43
2019-02-08T02:44:36.864Z,100857.11
2019-02-08T02:47:07.136Z,100859.42
2019-02-08T02:49:37.461Z,100860.91
2019-02-08T02:52:07.786Z,100856.99
2019-02-08T02:54:38.224Z,100862.38
2019-02-08T02:57:08.525Z,100868.81
2019-02-08T02:59:38.827Z,100866.98
2019-02-08T03:02:09.141Z,100883.91
2019-02-08T03:04:39.417Z,100888.23
2019-02-08T03:07:09.716Z,100885.36
2019-02-08T03:09:39.991Z,100888.27
2019-02-08T03:12:10.278Z,100880.06
2019-02-08T03:14:40.641Z,100886.85
2019-02-08T03:17:10.935Z,100889.91
2019-02-08T03:19:41.239Z,100890.39
2019-02-08T03:22:11.516Z,100887.16
2019-02-08T03:24:41.804Z,100886.26
2019-02-08T03:27:12.095Z,100884.75
2019-02-08T03:29:42.428Z,100882.16
2019-02-08T03:32:12.703Z,100888.63
2019-02-08T03:34:42.987Z,100884.30
2019-02-08T03:37:13.271Z,100889.81
2019-02-08T03:39:43.606Z,100895.17
2019-02-08T03:42:13.903Z,100901.73
2019-02-08T03:44:44.238Z,100896.62
2019-02-08T03:47:14.525Z,100902.05
2019-02-08T03:49:44.817Z,100895.55
2019-02-08T03:52:15.127Z,100904.84
2019-02-08T03:54:45.415Z,100903.91
2019-02-08T03:57:15.753Z,100902.16
2019-02-08T03:59:46.051Z,100897.41
2019-02-08T04:02:16.323Z,100898.19
2019-02-08T04:04:46.587Z,100903.31
2019-02-08T04:07:16.886Z,100911.87
2019-02-08T04:09:47.283Z,100913.80
2019-02-08T04:12:17.915Z,100904.38
2019-02-08T04:14:48.197Z,100914.04
2019-02-08T04:17:18.510Z,100909.59
2019-02-08T04:19:48.860Z,100901.44
2019-02-08T04:22:19.158Z,100907.38
2019-02-08T04:24:49.483Z,100917.18
2019-02-08T04:27:19.818Z,100914.30
2019-02-08T04:29:50.088Z,100918.92
2019-02-08T04:32:20.385Z,100916.98
2019-02-08T04:34:50.686Z,100925.52
2019-02-08T04:37:21.098Z,100924.45
2019-02-08T04:39:51.439Z,100922.69
2019-02-08T04:42:21.999Z,100922.79
2019-02-08T04:44:52.290Z,100924.42
2019-02-08T04:47:22.617Z,100928.86
2019-02-08T04:49:52.909Z,100927.30
2019-02-08T04:52:24.438Z,100936.13
2019-02-08T04:54:54.868Z,100943.81
2019-02-08T04:57:25.212Z,100938.83
2019-02-08T04:59:55.774Z,100939.67
2019-02-08T05:02:26.116Z,100949.36
2019-02-08T05:04:56.513Z,100940.61
2019-02-08T05:07:27.419Z,100949.74
2019-02-08T05:09:57.832Z,100957.14
2019-02-08T05:12:28.531Z,100959.41
2019-02-08T05:14:58.783Z,100956.25
2019-02-08T05:17:29.095Z,100958.86
2019-02-08T05:19:59.383Z,100956.25
2019-02-08T05:22:29.659Z,100965.21
2019-02-08T05:24:59.956Z,100967.30
2019-02-08T05:27:30.222Z,100965.86
2019-02-08T05:30:00.551Z,100966.98
2019-02-08T05:32:30.804Z,100971.27
2019-02-08T05:35:01.110Z,100981.15
2019-02-08T05:37:31.377Z,100977.91
2019-02-08T05:40:01.776Z,100979.54
2019-02-08T05:42:32.110Z,100976.70
2019-02-08T05:45:02.473Z,100977.54
2019-02-08T05:47:33.338Z,100981.50
2019-02-08T05:50:05.238Z,100984.36
2019-02-08T05:52:36.023Z,100983.23
2019-02-08T05:55:10.738Z,100974.83
2019-02-08T05:57:41.101Z,100984.72
2019-02-08T06:00:24.927Z,100990.43
2019-02-08T06:02:55.327Z,100984.94
2019-02-08T06:05:25.591Z,100990.02
2019-02-08T06:07:55.878Z,100986.73
2019-02-08T06:10:26.190Z,100993.30
2019-02-08T06:12:56.975Z,100994.94
2019-02-08T06:15:27.442Z,100995.51
2019-02-08T06:17:57.743Z,101004.54
2019-02-08T06:20:28.034Z,101004.50
2019-02-08T06:22:59.299Z,101002.15
2019-02-08T06:25:29.611Z,101012.40
2019-02-08T06:28:00.854Z,101017.14
2019-02-08T06:30:31.642Z,101022.52
2019-02-08T06:33:01.944Z,101029.56
2019-02-08T06:35:32.197Z,101028.02
2019-02-08T06:38:02.480Z,101027.02
2019-02-08T06:40:39.305Z,101026.31
2019-02-08T06:43:10.524Z,101028.62
2019-02-08T06:45:40.818Z,101027.34
2019-02-08T06:48:11.739Z,101029.40
2019-02-08T06:50:41.999Z,101034.89
2019-02-08T06:53:12.355Z,101031.59
2019-02-08T06:55:42.647Z,101042.02
2019-02-08T06:58:14.911Z,101037.77
2019-02-08T07:00:52.112Z,101041.22
2019-02-08T07:03:35.994Z,101047.17
2019-02-08T07:06:10.713Z,101055.57
2019-02-08T07:08:51.417Z,101056.17
2019-02-08T07:11:39.460Z,101062.78
2019-02-08T07:14:23.609Z,101062.95
2019-02-08T07:17:13.947Z,101059.36
2019-02-08T07:19:55.186Z,101064.91
2019-02-08T07:22:43.600Z,101072.19
2019-02-08T07:25:30.719Z,101063.89
2019-02-08T07:28:08.650Z,101073.64
2019-02-08T07:30:59.709Z,101072.45
2019-02-08T07:33:31.650Z,101067.14
2019-02-08T07:36:03.565Z,101071.66
2019-02-08T07:38:38.422Z,101073.94
2019-02-08T07:41:25.602Z,101080.25
2019-02-08T07:43:57.552Z,101077.11
2019-02-08T07:46:29.486Z,101077.75
2019-02-08T07:49:01.397Z,101076.73
2019-02-08T07:51:39.296Z,101083.23
2019-02-08T07:54:23.353Z,101085.89
2019-02-08T07:57:07.294Z,101087.95
2019-02-08T07:59:42.239Z,101092.77
2019-02-08T08:02:20.543Z,101086.50
2019-02-08T08:05:10.568Z,101090.25
2019-02-08T08:07:42.510Z,101090.52
2019-02-08T08:10:28.314Z,101100.19
2019-02-08T08:13:02.938Z,101094.17
2019-02-08T08:15:37.859Z,101099.39
2019-02-08T08:18:09.828Z,101097.73
2019-02-08T08:20:41.751Z,101098.39
2019-02-08T08:23:25.918Z,101099.39
2019-02-08T08:26:13.267Z,101101.66
2019-02-08T08:29:01.704Z,101098.22
2019-02-08T08:31:35.985Z,101107.40
2019-02-08T08:34:12.479Z,101105.27
2019-02-08T08:37:05.443Z,101103.83
2019-02-08T08:39:47.961Z,101101.45
2019-02-08T08:42:21.504Z,101097.78
2019-02-08T08:45:00.866Z,101103.62
2019-02-08T08:47:49.347Z,101110.05
2019-02-08T08:50:25.872Z,101104.47
2019-02-08T08:53:05.491Z,101097.35
2019-02-08T08:55:54.298Z,101096.76
2019-02-08T08:58:39.772Z,101101.98
2019-02-08T09:01:31.273Z,101097.88
2019-02-08T09:04:25.940Z,101100.87
2019-02-08T09:07:16.260Z,101101.33
2019-02-08T09:10:06.266Z,101104.48
2019-02-08T09:12:48.816Z,101112.21
2019-02-08T09:15:37.379Z,101106.58
2019-02-08T09:18:22.789Z,101114.16
2019-02-08T09:21:14.276Z,101110.16
2019-02-08T09:23:47.825Z,101100.73
2019-02-08T09:26:27.653Z,101091.74
2019-02-08T09:29:07.034Z,101090.37
2019-02-08T09:32:00.111Z,101091.68
2019-02-08T09:34:42.551Z,101088.63
2019-02-08T09:37:25.350Z,101084.69
2019-02-08T09:40:13.900Z,101092.25
2019-02-08T09:43:13.185Z,101100.38
2019-02-08T09:46:06.193Z,101101.72
2019-02-08T09:48:57.833Z,101098.42
2019-02-08T09:51:54.319Z,101096.10
2019-02-08T09:54:39.388Z,101101.78
2019-02-08T09:57:21.979Z,101100.78
2019-02-08T10:00:04.249Z,101103.36
2019-02-08T10:03:03.225Z,101097.12
2019-02-08T10:05:57.268Z,101096.52
2019-02-08T10:09:02.521Z,101103.09
2019-02-08T10:11:53.655Z,101107.16
2019-02-08T10:14:48.121Z,101106.78
2019-02-08T10:17:53.591Z,101120.88
2019-02-08T10:20:29.633Z,101113.89
2019-02-08T10:23:25.233Z,101111.20
2019-02-08T10:26:07.610Z,101108.37
2019-02-08T10:29:03.806Z,101095.13
2019-02-08T10:31:46.506Z,101088.75
2019-02-08T10:34:20.125Z,101093.55
2019-02-08T10:37:06.027Z,101090.73
2019-02-08T10:40:11.129Z,101099.06
2019-02-08T10:43:02.831Z,101100.89
2019-02-08T10:45:57.598Z,101097.96
2019-02-08T10:48:52.270Z,101096.61
2019-02-08T10:51:42.287Z,101089.99
2019-02-08T10:54:33.758Z,101087.29
2019-02-08T10:57:27.008Z,101085.82
2019-02-08T11:00:20.130Z,101086.16
2019-02-08T11:03:12.057Z,101082.10
2019-02-08T11:06:02.090Z,101072.34
2019-02-08T11:08:38.099Z,101076.25
2019-02-08T11:11:31.051Z,101073.38
2019-02-08T11:14:21.150Z,101072.61
2019-02-08T11:17:11.415Z,101075.54
2019-02-08T11:19:40.762Z,101082.76
2019-02-08T11:22:11.083Z,101080.69
2019-02-08T11:24:41.353Z,101071.75
2019-02-08T11:27:11.675Z,101069.54
2019-02-08T11:29:41.954Z,101062.60
2019-02-08T11:32:12.250Z,101067.09
2019-02-08T11:34:42.518Z,101072.92
2019-02-08T11:37:12.817Z,101072.03
2019-02-08T11:39:43.155Z,101064.68
2019-02-08T11:42:13.431Z,101065.81
2019-02-08T11:44:43.728Z,101066.47
2019-02-08T11:47:13.985Z,101064.09
2019-02-08T11:49:44.365Z,101060.45
2019-02-08T11:52:15.773Z,101063.88
2019-02-08T11:54:46.063Z,101060.84
2019-02-08T11:57:16.403Z,101056.75
2019-02-08T11:59:47.124Z,101057.02
2019-02-08T12:02:17.423Z,101054.89
2019-02-08T12:04:47.716Z,101044.71
2019-02-08T12:07:18.057Z,101043.70
2019-02-08T12:09:48.383Z,101030.77
2019-02-08T12:12:18.663Z,101034.36
2019-02-08T12:14:48.998Z,101032.85
2019-02-08T12:17:19.341Z,101031.76
2019-02-08T12:19:49.657Z,101020.09
2019-02-08T12:22:19.985Z,101016.80
2019-02-08T12:24:50.262Z,101020.80
2019-02-08T12:27:20.583Z,101017.97
2019-02-08T12:29:50.855Z,101022.09
2019-02-08T12:32:21.157Z,101024.82
2019-02-08T12:34:51.450Z,101016.13
2019-02-08T12:37:21.737Z,101016.13
2019-02-08T12:39:52.005Z,101009.44
2019-02-08T12:42:22.303Z,101011.05
2019-02-08T12:44:52.622Z,101001.77
2019-02-08T12:47:22.920Z,101015.27
2019-02-08T12:49:53.193Z,101012.50
2019-02-08T12:52:23.473Z,101009.01
2019-02-08T12:54:53.985Z,101010.59
2019-02-08T12:57:24.370Z,101004.73
2019-02-08T12:59:54.720Z,101009.87
2019-02-08T13:02:24.998Z,101008.34
2019-02-08T13:04:55.292Z,100998.63
2019-02-08T13:07:25.574Z,100993.50
2019-02-08T13:09:55.870Z,100990.97
2019-02-08T13:12:26.184Z,100990.38
2019-02-08T13:14:56.447Z,100984.98
2019-02-08T13:17:26.731Z,100987.36
2019-02-08T13:19:57.005Z,100986.06
2019-02-08T13:22:27.900Z,100982.09
2019-02-08T13:24:58.176Z,100982.22
2019-02-08T13:27:29.556Z,100990.83
2019-02-08T13:29:59.863Z,100986.28
2019-02-08T13:32:30.143Z,100986.28
2019-02-08T13:35:00.470Z,100984.43
2019-02-08T13:37:33.480Z,100978.34
2019-02-08T13:40:05.601Z,100974.94
2019-02-08T13:42:35.923Z,100974.30
2019-02-08T13:45:09.541Z,100976.74
2019-02-08T13:47:39.850Z,100973.67
2019-02-08T13:50:16.002Z,100978.37
2019-02-08T13:52:46.284Z,100970.80
2019-02-08T13:55:19.368Z,100974.05
2019-02-08T13:57:49.646Z,100971.97
2019-02-08T14:00:39.833Z,100973.77
2019-02-08T14:03:10.129Z,100969.85
2019-02-08T14:05:40.450Z,100972.11
2019-02-08T14:08:10.892Z,100963.64
2019-02-08T14:10:41.336Z,100963.77
2019-02-08T14:13:11.608Z,100959.53
2019-02-08T14:15:41.882Z,100965.30
2019-02-08T14:18:12.211Z,100960.08
2019-02-08T14:20:42.495Z,100957.41
2019-02-08T14:23:12.798Z,100963.13
2019-02-08T14:25:43.056Z,100959.16
2019-02-08T14:28:13.589Z,100958.02
2019-02-08T14:30:44.643Z,100954.11
2019-02-08T14:33:15.380Z,100949.83
2019-02-08T14:35:45.758Z,100954.20
2019-02-08T14:38:19.027Z,100948.08
2019-02-08T14:40:51.223Z,100933.98
2019-02-08T14:43:23.283Z,100934.34
2019-02-08T14:45:54.315Z,100931.64
2019-02-08T14:48:24.693Z,100928.72
2019-02-08T14:50:55.073Z,100936.36
2019-02-08T14:53:25.392Z,100933.56
2019-02-08T14:55:55.692Z,100936.52
2019-02-08T14:58:26.013Z,100935.34
2019-02-08T15:00:56.334Z,100940.61
2019-02-08T15:03:26.661Z,100942.72
2019-02-08T15:05:56.968Z,100945.37
2019-02-08T15:08:27.264Z,100945.45
2019-02-08T15:10:58.117Z,100947.19
2019-02-08T15:13:28.498Z,100945.24
2019-02-08T15:15:58.795Z,100938.47
2019-02-08T15:18:29.105Z,100942.55
2019-02-08T15:21:00.380Z,100942.89
2019-02-08T15:23:30.732Z,100945.66
2019-02-08T15:26:01.284Z,100947.45
2019-02-08T15:28:31.601Z,100946.09
2019-02-08T15:31:01.873Z,100950.64
2019-02-08T15:33:32.150Z,100945.20
2019-02-08T15:36:02.451Z,100940.27
2019-02-08T15:38:32.739Z,100949.37
2019-02-08T15:41:03.232Z,100952.69
2019-02-08T15:43:34.053Z,100954.00
2019-02-08T15:46:04.555Z,100957.90
2019-02-08T15:48:35.387Z,100954.89
2019-02-08T15:51:05.666Z,100955.65
2019-02-08T15:53:35.937Z,100945.87
2019-02-08T15:56:09.841Z,100949.22
2019-02-08T15:58:40.283Z,100945.27
2019-02-08T16:01:11.042Z,100946.47
2019-02-08T16:03:41.785Z,100941.86
2019-02-08T16:06:12.069Z,100941.61
2019-02-08T16:08:42.420Z,100939.31
2019-02-08T16:11:12.720Z,100935.64
2019-02-08T16:13:43.030Z,100933.23
2019-02-08T16:16:13.303Z,100925.97
2019-02-08T16:18:43.662Z,100930.73
2019-02-08T16:21:13.956Z,100928.01
2019-02-08T16:23:44.329Z,100926.66
2019-02-08T16:26:14.700Z,100934.00
2019-02-08T16:28:45.016Z,100933.52
2019-02-08T16:31:15.282Z,100931.19
2019-02-08T16:33:45.556Z,100930.45
2019-02-08T16:36:15.861Z,100936.34
2019-02-08T16:38:46.199Z,100936.97
2019-02-08T16:41:16.502Z,100934.77
2019-02-08T16:43:47.103Z,100926.53
2019-02-08T16:46:17.415Z,100933.40
2019-02-08T16:48:47.816Z,100935.63
2019-02-08T16:51:18.264Z,100938.31
2019-02-08T16:53:53.632Z,100939.06
2019-02-08T16:56:20.699Z,100928.52
2019-02-08T16:58:50.972Z,100923.21
2019-02-08T17:01:21.410Z,100922.38
2019-02-08T17:03:51.854Z,100923.22
2019-02-08T17:06:22.175Z,100924.81
2019-02-08T17:08:52.442Z,100912.23
2019-02-08T17:11:22.764Z,100922.58
2019-02-08T17:13:53.073Z,100926.50
2019-02-08T17:16:25.054Z,100925.28
2019-02-08T17:18:55.388Z,100918.17
2019-02-08T17:21:25.788Z,100922.83
2019-02-08T17:23:56.623Z,100919.39
2019-02-08T17:26:26.998Z,100919.75
2019-02-08T17:28:57.284Z,100921.11
2019-02-08T17:31:27.568Z,100927.60
2019-02-08T17:33:57.997Z,100920.14
2019-02-08T17:36:28.419Z,100917.44
2019-02-08T17:38:58.709Z,100916.83
2019-02-08T17:41:29.079Z,100919.03
2019-02-08T17:43:59.499Z,100917.92
2019-02-08T17:46:29.790Z,100920.00
2019-02-08T17:49:00.380Z,100917.80
2019-02-08T17:51:30.666Z,100915.84
2019-02-08T17:54:01.580Z,100916.22
2019-02-08T17:56:31.960Z,100914.75
2019-02-08T17:59:02.395Z,100916.69
2019-02-08T18:01:32.687Z,100909.22
2019-02-08T18:04:03.007Z,100907.59
2019-02-08T18:06:33.370Z,100908.91
2019-02-08T18:09:05.332Z,100913.95
2019-02-08T18:11:35.755Z,100902.95
2019-02-08T18:14:06.999Z,100907.40
2019-02-08T18:16:37.272Z,100906.78
2019-02-08T18:19:07.619Z,100906.75
2019-02-08T18:21:38.166Z,100909.97
2019-02-08T18:24:08.454Z,100906.79
2019-02-08T18:26:39.154Z,100897.37
2019-02-08T18:29:09.454Z,100901.16
2019-02-08T18:31:39.859Z,100899.07
2019-02-08T18:34:10.441Z,100905.44
2019-02-08T18:36:41.018Z,100907.03
2019-02-08T18:39:11.362Z,100906.78
2019-02-08T18:41:41.606Z,100906.78
2019-02-08T18:44:11.900Z,100905.45
2019-02-08T18:46:42.198Z,100900.91
2019-02-08T18:49:13.450Z,100901.28
2019-02-08T18:51:43.981Z,100898.47
2019-02-08T18:54:14.349Z,100899.56
2019-02-08T18:56:45.729Z,100899.20
2019-02-08T18:59:17.088Z,100889.29
2019-02-08T19:01:47.428Z,100886.84
2019-02-08T19:04:17.778Z,100883.30
2019-02-08T19:06:49.284Z,100879.50
2019-02-08T19:09:19.613Z,100881.69
2019-02-08T19:11:49.934Z,100885.69
2019-02-08T19:14:21.305Z,100881.41
2019-02-08T19:16:52.575Z,100885.84
2019-02-08T19:19:22.945Z,100878.05
2019-02-08T19:21:53.238Z,100876.49
2019-02-08T19:24:23.826Z,100869.98
2019-02-08T19:26:54.744Z,100877.87
2019-02-08T19:29:25.541Z,100873.59
2019-02-08T19:31:55.848Z,100869.02
2019-02-08T19:34:26.170Z,100871.05
2019-02-08T19:36:56.548Z,100863.87
2019-02-08T19:39:26.842Z,100866.54
2019-02-08T19:41:58.681Z,100856.27
2019-02-08T19:44:28.976Z,100862.74
2019-02-08T19:47:00.400Z,100859.80
2019-02-08T19:49:31.913Z,100855.72
2019-02-08T19:52:02.286Z,100859.94
2019-02-08T19:54:33.884Z,100854.72
2019-02-08T19:57:04.687Z,100851.43
2019-02-08T19:59:35.681Z,100847.95
2019-02-08T20:02:06.126Z,100850.84
2019-02-08T20:04:37.101Z,100842.00
2019-02-08T20:07:08.126Z,100836.41
2019-02-08T20:09:38.547Z,100838.22
2019-02-08T20:12:10.261Z,100836.64
2019-02-08T20:14:40.586Z,100831.72
2019-02-08T20:17:10.908Z,100829.41
2019-02-08T20:19:41.226Z,100829.18
2019-02-08T20:22:11.572Z,100830.41
2019-02-08T20:24:42.539Z,100820.98
2019-02-08T20:27:13.122Z,100822.37
2019-02-08T20:29:43.428Z,100820.14
2019-02-08T20:32:15.481Z,100821.69
2019-02-08T20:34:58.155Z,100819.86
2019-02-08T20:37:28.529Z,100816.77
2019-02-08T20:39:58.939Z,100812.80
2019-02-08T20:42:29.187Z,100809.83
2019-02-08T20:44:59.701Z,100812.79
2019-02-08T20:47:30.113Z,100809.90
2019-02-08T20:50:00.515Z,100815.64
2019-02-08T20:52:31.490Z,100813.25
2019-02-08T20:55:01.839Z,100814.22
2019-02-08T20:57:33.218Z,100814.62
2019-02-08T21:00:06.625Z,100811.08
2019-02-08T21:02:36.927Z,100807.91
2019-02-08T21:05:07.590Z,100806.44
2019-02-08T21:07:38.157Z,100804.61
2019-02-08T21:10:10.975Z,100796.28
2019-02-08T21:12:42.026Z,100795.69
2019-02-08T21:15:20.303Z,100790.77
2019-02-08T21:17:50.638Z,100789.83
2019-02-08T21:20:21.132Z,100782.23
2019-02-08T21:22:53.032Z,100778.47
2019-02-08T21:25:37.808Z,100780.64
2019-02-08T21:28:08.714Z,100777.95
2019-02-08T21:30:40.027Z,100772.98
2019-02-08T21:33:12.116Z,100771.59
2019-02-08T21:35:42.973Z,100768.20
2019-02-08T21:38:13.966Z,100767.25
2019-02-08T21:40:44.305Z,100758.15
2019-02-08T21:43:15.417Z,100762.81
2019-02-08T21:45:46.411Z,100757.72
2019-02-08T21:48:16.850Z,100753.05
2019-02-08T21:50:47.833Z,100747.75
2019-02-08T21:53:18.690Z,100745.53
2019-02-08T21:55:49.106Z,100745.60
2019-02-08T21:58:19.803Z,100737.77
2019-02-08T22:00:53.178Z,100739.72
2019-02-08T22:03:23.559Z,100737.14
2019-02-08T22:05:59.899Z,100738.18
2019-02-08T22:08:30.207Z,100730.39
2019-02-08T22:11:00.587Z,100725.89
2019-02-08T22:13:31.396Z,100724.80
2019-02-08T22:16:01.888Z,100717.95
2019-02-08T22:18:32.175Z,100716.12
2019-02-08T22:21:02.492Z,100718.09
2019-02-08T22:23:32.754Z,100715.72
2019-02-08T22:26:03.044Z,100713.22
2019-02-08T22:28:33.473Z,100710.05
2019-02-08T22:31:03.762Z,100705.72
2019-02-08T22:33:34.064Z,100709.55
2019-02-08T22:36:04.380Z,100702.98
2019-02-08T22:38:34.665Z,100703.64
2019-02-08T22:41:05.084Z,100698.70
2019-02-08T22:43:35.386Z,100697.95
2019-02-08T22:46:05.673Z,100685.98
2019-02-08T22:48:35.980Z,100683.88
2019-02-08T22:51:06.271Z,100682.66
2019-02-08T22:53:37.732Z,100680.22
2019-02-08T22:56:08.055Z,100674.70
2019-02-08T22:58:38.341Z,100680.13
2019-02-08T23:01:14.784Z,100672.77
2019-02-08T23:03:45.083Z,100663.15
2019-02-08T23:06:15.377Z,100662.94
2019-02-08T23:08:45.643Z,100659.78
2019-02-08T23:11:15.942Z,100654.91
2019-02-08T23:13:46.263Z,100651.88
2019-02-08T23:16:16.592Z,100656.98
2019-02-08T23:18:47.206Z,100655.52
2019-02-08T23:21:17.500Z,100655.47
2019-02-08T23:23:47.843Z,100649.12
2019-02-08T23:26:19.285Z,100648.17
2019-02-08T23:28:49.673Z,100648.05
2019-02-08T23:31:20.013Z,100641.84
2019-02-08T23:33:51.956Z,100637.78
2019-02-08T23:36:22.320Z,100642.16
2019-02-08T23:38:52.610Z,100633.63
2019-02-08T23:41:23.109Z,100634.98
2019-02-08T23:43:53.539Z,100632.53
2019-02-08T23:46:24.146Z,100629.49
2019-02-08T23:48:54.477Z,100617.77
2019-02-08T23:51:24.745Z,100613.98
2019-02-08T23:53:55.034Z,100619.10
2019-02-08T23:56:25.296Z,100616.42
2019-02-08T23:58:55.568Z,100612.89
